Time,TemperatureF,DewpointF,PressureIn,WindDirection,WindDirectionDegrees,WindSpeedMPH,WindSpeedGustMPH,Humidity,HourlyPrecipIn,Conditions,Clouds,dailyrainin,SoftwareType,DateUTC
2013-08-27 00:01:00,63.7,56.0,30.21,NE,45,0.0,0.0,76,0.00,,,0.00,WUHU216HW,2013-08-27 04:01:00,
2013-08-27 00:02:00,63.7,56.0,30.22,NE,45,0.0,0.0,76,0.00,,,0.00,WUHU216HW,2013-08-27 04:02:00,
2013-08-27 00:07:00,63.7,56.3,30.21,NE,45,0.0,0.0,77,0.00,,,0.00,WUHU216HW,2013-08-27 04:07:00,
2013-08-27 00:12:00,63.7,56.3,30.21,NE,45,0.0,0.0,77,0.00,,,0.00,WUHU216HW,2013-08-27 04:12:00,
2013-08-27 00:17:00,63.7,56.3,30.22,NE,45,0.0,0.0,77,0.00,,,0.00,WUHU216HW,2013-08-27 04:17:00,
2013-08-27 00:22:00,63.5,56.2,30.21,NE,45,0.0,0.0,77,0.00,,,0.00,WUHU216HW,2013-08-27 04:22:00,
2013-08-27 00:27:00,63.4,56.0,30.22,NE,45,0.0,0.0,77,0.00,,,0.00,WUHU216HW,2013-08-27 04:27:00,
2013-08-27 00:32:00,63.4,56.0,30.21,NE,45,0.0,0.0,77,0.00,,,0.00,WUHU216HW,2013-08-27 04:32:00,
2013-08-27 00:37:00,63.4,56.0,30.21,NE,45,0.0,0.0,77,0.00,,,0.00,WUHU216HW,2013-08-27 04:37:00,
2013-08-27 00:42:00,63.4,56.3,30.21,NE,45,0.0,0.0,78,0.00,,,0.00,WUHU216HW,2013-08-27 04:42:00,
2013-08-27 00:47:00,63.4,56.3,30.21,NE,45,0.0,0.0,78,0.00,,,0.00,WUHU216HW,2013-08-27 04:47:00,
2013-08-27 00:52:00,63.4,56.3,30.21,NE,45,0.0,0.0,78,0.00,,,0.00,WUHU216HW,2013-08-27 04:52:00,
2013-08-27 00:57:00,63.4,56.3,30.21,NE,45,0.0,0.0,78,0.00,,,0.00,WUHU216HW,2013-08-27 04:57:00,
2013-08-27 01:02:00,63.4,56.3,30.21,NE,45,0.0,0.0,78,0.00,,,0.00,WUHU216HW,2013-08-27 05:02:00,
2013-08-27 01:07:00,63.2,56.2,30.21,NE,45,0.0,0.0,78,0.00,,,0.00,WUHU216HW,2013-08-27 05:07:00,
2013-08-27 01:12:00,63.0,56.0,30.21,NE,45,0.0,0.0,78,0.00,,,0.00,WUHU216HW,2013-08-27 05:12:00,
2013-08-27 01:17:00,62.8,55.8,30.21,NE,45,0.0,0.0,78,0.00,,,0.00,WUHU216HW,2013-08-27 05:17:00,
2013-08-27 01:22:00,62.6,56.0,30.21,NE,45,0.0,0.0,79,0.00,,,0.00,WUHU216HW,2013-08-27 05:22:00,
2013-08-27 01:27:00,62.6,56.0,30.20,NE,45,0.0,0.0,79,0.00,,,0.00,WUHU216HW,2013-08-27 05:27:00,
2013-08-27 01:32:00,62.6,56.0,30.20,NE,45,0.0,0.0,79,0.00,,,0.00,WUHU216HW,2013-08-27 05:32:00,
2013-08-27 01:37:00,62.6,56.0,30.20,NE,45,0.0,0.0,79,0.00,,,0.00,WUHU216HW,2013-08-27 05:37:00,
2013-08-27 01:42:00,62.6,56.0,30.20,NE,45,0.0,0.0,79,0.00,,,0.00,WUHU216HW,2013-08-27 05:42:00,
2013-08-27 01:47:00,62.5,55.8,30.20,NE,45,0.0,0.0,79,0.00,,,0.00,WUHU216HW,2013-08-27 05:47:00,
2013-08-27 01:52:00,62.6,56.0,30.20,NE,45,0.0,0.0,79,0.00,,,0.00,WUHU216HW,2013-08-27 05:52:00,
2013-08-27 01:57:00,62.6,56.0,30.20,NE,45,0.0,0.0,79,0.00,,,0.00,WUHU216HW,2013-08-27 05:57:00,
2013-08-27 02:02:00,62.6,56.0,30.19,NE,45,0.0,0.0,79,0.00,,,0.00,WUHU216HW,2013-08-27 06:02:00,
2013-08-27 02:07:00,62.6,56.0,30.20,NE,45,0.0,0.0,79,0.00,,,0.00,WUHU216HW,2013-08-27 06:07:00,
2013-08-27 02:12:00,62.6,56.0,30.20,NE,45,0.0,0.0,79,0.00,,,0.00,WUHU216HW,2013-08-27 06:12:00,
2013-08-27 02:17:00,62.6,56.0,30.20,NE,45,0.0,0.0,79,0.00,,,0.00,WUHU216HW,2013-08-27 06:17:00,
2013-08-27 02:22:00,62.6,56.0,30.20,NE,45,0.0,0.0,79,0.00,,,0.00,WUHU216HW,2013-08-27 06:22:00,
2013-08-27 02:27:00,62.6,56.0,30.19,NE,45,0.0,0.0,79,0.00,,,0.00,WUHU216HW,2013-08-27 06:27:00,
2013-08-27 02:32:00,62.6,56.0,30.19,NE,45,0.0,0.0,79,0.00,,,0.00,WUHU216HW,2013-08-27 06:32:00,
2013-08-27 02:37:00,62.3,55.6,30.19,NNE,23,0.0,0.0,79,0.00,,,0.00,WUHU216HW,2013-08-27 06:37:00,
2013-08-27 02:42:00,62.3,55.6,30.19,NNE,23,0.0,0.0,79,0.00,,,0.00,WUHU216HW,2013-08-27 06:42:00,
2013-08-27 02:47:00,62.1,55.9,30.19,NNE,23,0.0,0.0,80,0.00,,,0.00,WUHU216HW,2013-08-27 06:47:00,
2013-08-27 02:52:00,61.9,55.7,30.19,NNE,23,0.0,0.0,80,0.00,,,0.00,WUHU216HW,2013-08-27 06:52:00,
2013-08-27 02:57:00,62.1,55.9,30.19,NNE,23,0.0,0.0,80,0.00,,,0.00,WUHU216HW,2013-08-27 06:57:00,
2013-08-27 03:02:00,62.3,56.0,30.18,NNE,23,0.0,0.0,80,0.00,,,0.00,WUHU216HW,2013-08-27 07:02:00,
2013-08-27 03:07:00,62.3,56.0,30.19,NNE,23,0.0,0.0,80,0.00,,,0.00,WUHU216HW,2013-08-27 07:07:00,
2013-08-27 03:12:00,62.3,56.0,30.18,NNE,23,0.0,0.0,80,0.00,,,0.00,WUHU216HW,2013-08-27 07:12:00,
2013-08-27 03:17:00,62.1,55.9,30.19,NNE,23,0.0,0.0,80,0.00,,,0.00,WUHU216HW,2013-08-27 07:17:00,
2013-08-27 03:22:00,62.1,55.9,30.18,NNE,23,0.0,0.0,80,0.00,,,0.00,WUHU216HW,2013-08-27 07:22:00,
2013-08-27 03:27:00,62.1,56.2,30.18,NNE,23,0.0,0.0,81,0.00,,,0.00,WUHU216HW,2013-08-27 07:27:00,
2013-08-27 03:32:00,61.9,56.1,30.18,NNE,23,0.0,0.0,81,0.00,,,0.00,WUHU216HW,2013-08-27 07:32:00,
2013-08-27 03:37:00,61.9,56.1,30.18,NNE,23,0.0,0.0,81,0.00,,,0.00,WUHU216HW,2013-08-27 07:37:00,
2013-08-27 03:42:00,62.1,56.2,30.17,NNE,23,0.0,0.0,81,0.00,,,0.00,WUHU216HW,2013-08-27 07:42:00,
2013-08-27 03:47:00,62.1,56.2,30.17,NNE,23,0.0,0.0,81,0.00,,,0.00,WUHU216HW,2013-08-27 07:47:00,
2013-08-27 03:52:00,62.1,56.2,30.17,NNE,23,0.0,0.0,81,0.00,,,0.00,WUHU216HW,2013-08-27 07:52:00,
2013-08-27 03:57:00,62.1,56.2,30.17,NNE,23,0.0,0.0,81,0.00,,,0.00,WUHU216HW,2013-08-27 07:57:00,
2013-08-27 04:02:00,62.1,56.2,30.17,NNE,23,0.0,0.0,81,0.00,,,0.00,WUHU216HW,2013-08-27 08:02:00,
2013-08-27 04:07:00,61.9,56.1,30.17,NNE,23,0.0,0.0,81,0.00,,,0.00,WUHU216HW,2013-08-27 08:07:00,
2013-08-27 04:12:00,61.7,55.9,30.17,NNE,23,0.0,0.0,81,0.00,,,0.00,WUHU216HW,2013-08-27 08:12:00,
2013-08-27 04:17:00,61.7,55.9,30.17,NNE,23,0.0,0.0,81,0.00,,,0.00,WUHU216HW,2013-08-27 08:17:00,
2013-08-27 04:22:00,61.7,55.9,30.17,NNE,23,0.0,0.0,81,0.00,,,0.00,WUHU216HW,2013-08-27 08:22:00,
2013-08-27 04:27:00,61.7,55.9,30.17,NNE,23,0.0,0.0,81,0.00,,,0.00,WUHU216HW,2013-08-27 08:27:00,
2013-08-27 04:32:00,61.7,55.9,30.17,NNE,23,0.0,0.0,81,0.00,,,0.00,WUHU216HW,2013-08-27 08:32:00,
2013-08-27 04:37:00,61.6,56.1,30.16,NNE,23,0.0,0.0,82,0.00,,,0.00,WUHU216HW,2013-08-27 08:37:00,
2013-08-27 04:42:00,61.6,55.7,30.16,NNE,23,0.0,0.0,81,0.00,,,0.00,WUHU216HW,2013-08-27 08:42:00,
2013-08-27 04:47:00,61.6,56.1,30.16,NNE,23,0.0,0.0,82,0.00,,,0.00,WUHU216HW,2013-08-27 08:47:00,
2013-08-27 04:52:00,61.6,56.1,30.16,NNE,23,0.0,0.0,82,0.00,,,0.00,WUHU216HW,2013-08-27 08:52:00,
2013-08-27 04:57:00,61.4,55.9,30.16,NNE,23,0.0,0.0,82,0.00,,,0.00,WUHU216HW,2013-08-27 08:57:00,
2013-08-27 05:02:00,61.2,56.1,30.16,NNW,338,0.0,0.0,83,0.00,,,0.00,WUHU216HW,2013-08-27 09:02:00,
2013-08-27 05:07:00,61.0,55.9,30.16,NNW,338,0.0,0.0,83,0.00,,,0.00,WUHU216HW,2013-08-27 09:07:00,
2013-08-27 05:12:00,60.8,55.7,30.16,NNW,338,0.0,0.0,83,0.00,,,0.00,WUHU216HW,2013-08-27 09:12:00,
2013-08-27 05:17:00,61.0,55.9,30.17,NNW,338,0.0,0.0,83,0.00,,,0.00,WUHU216HW,2013-08-27 09:17:00,
2013-08-27 05:22:00,61.0,55.9,30.17,NNW,338,0.0,0.0,83,0.00,,,0.00,WUHU216HW,2013-08-27 09:22:00,
2013-08-27 05:27:00,60.8,55.7,30.17,NNW,338,0.0,0.0,83,0.00,,,0.00,WUHU216HW,2013-08-27 09:27:00,
2013-08-27 05:32:00,61.0,55.9,30.17,NNW,338,0.0,0.0,83,0.00,,,0.00,WUHU216HW,2013-08-27 09:32:00,
2013-08-27 05:37:00,61.0,55.9,30.16,NNW,338,0.0,0.0,83,0.00,,,0.00,WUHU216HW,2013-08-27 09:37:00,
2013-08-27 05:42:00,61.0,55.9,30.16,NNW,338,0.0,0.0,83,0.00,,,0.00,WUHU216HW,2013-08-27 09:42:00,
2013-08-27 05:47:00,61.2,56.1,30.16,NNW,338,0.0,0.0,83,0.00,,,0.00,WUHU216HW,2013-08-27 09:47:00,
2013-08-27 05:52:00,61.2,56.1,30.16,NNW,338,0.0,0.0,83,0.00,,,0.00,WUHU216HW,2013-08-27 09:52:00,
2013-08-27 05:57:00,61.2,56.1,30.16,NNW,338,0.0,0.0,83,0.00,,,0.00,WUHU216HW,2013-08-27 09:57:00,
2013-08-27 06:02:00,61.2,56.1,30.16,NNW,338,0.0,0.0,83,0.00,,,0.00,WUHU216HW,2013-08-27 10:02:00,
2013-08-27 06:07:00,61.2,56.1,30.16,NNW,338,0.0,0.0,83,0.00,,,0.00,WUHU216HW,2013-08-27 10:07:00,
2013-08-27 06:12:00,61.2,56.1,30.16,NNW,338,0.0,0.0,83,0.00,,,0.00,WUHU216HW,2013-08-27 10:12:00,
2013-08-27 06:17:00,61.0,56.2,30.16,NNW,338,0.0,0.0,84,0.00,,,0.00,WUHU216HW,2013-08-27 10:17:00,
2013-08-27 06:22:00,60.8,56.0,30.16,NNW,338,0.0,0.0,84,0.00,,,0.00,WUHU216HW,2013-08-27 10:22:00,
2013-08-27 06:27:00,60.8,56.0,30.16,NNW,338,0.0,0.0,84,0.00,,,0.00,WUHU216HW,2013-08-27 10:27:00,
2013-08-27 06:32:00,60.8,56.0,30.17,NNW,338,0.0,0.0,84,0.00,,,0.00,WUHU216HW,2013-08-27 10:32:00,
2013-08-27 06:37:00,60.8,56.0,30.17,NNW,338,0.0,0.0,84,0.00,,,0.00,WUHU216HW,2013-08-27 10:37:00,
2013-08-27 06:42:00,60.8,56.0,30.17,NNW,338,0.0,0.0,84,0.00,,,0.00,WUHU216HW,2013-08-27 10:42:00,
2013-08-27 06:47:00,61.0,56.2,30.16,NNW,338,0.0,0.0,84,0.00,,,0.00,WUHU216HW,2013-08-27 10:47:00,
2013-08-27 06:52:00,60.8,56.0,30.17,NW,315,0.0,0.0,84,0.00,,,0.00,WUHU216HW,2013-08-27 10:52:00,
2013-08-27 06:57:00,60.8,56.3,30.17,NW,315,0.0,0.0,85,0.00,,,0.00,WUHU216HW,2013-08-27 10:57:00,
2013-08-27 07:02:00,61.0,56.5,30.17,NW,315,0.0,0.0,85,0.00,,,0.00,WUHU216HW,2013-08-27 11:02:00,
2013-08-27 07:07:00,61.0,56.5,30.17,NW,315,0.0,0.0,85,0.00,,,0.00,WUHU216HW,2013-08-27 11:07:00,
2013-08-27 07:12:00,61.0,56.5,30.17,NW,315,0.0,0.0,85,0.00,,,0.00,WUHU216HW,2013-08-27 11:12:00,
2013-08-27 07:17:00,61.0,56.5,30.17,NW,315,0.0,0.0,85,0.00,,,0.00,WUHU216HW,2013-08-27 11:17:00,
2013-08-27 09:58:00,81.2,65.0,30.16,WNW,293,0.9,0.9,58,0.00,,,0.00,WUHU216HW,2013-08-27 13:58:00,
2013-08-27 10:03:00,80.6,66.0,30.16,WSW,248,1.3,1.8,61,0.00,,,0.00,WUHU216HW,2013-08-27 14:03:00,
2013-08-27 10:08:00,80.1,65.9,30.15,NNW,338,1.1,3.4,62,0.00,,,0.00,WUHU216HW,2013-08-27 14:08:00,
2013-08-27 10:13:00,79.9,65.4,30.15,SSE,158,0.7,3.4,61,0.00,,,0.00,WUHU216HW,2013-08-27 14:13:00,
2013-08-27 10:18:00,79.9,65.8,30.15,SSE,158,1.1,2.5,62,0.00,,,0.00,WUHU216HW,2013-08-27 14:18:00,
2013-08-27 10:23:00,80.1,65.1,30.15,SW,225,0.4,2.5,60,0.00,,,0.00,WUHU216HW,2013-08-27 14:23:00,
2013-08-27 10:28:00,79.9,66.0,30.13,NNW,338,1.8,2.5,62,0.00,,,0.00,WUHU216HW,2013-08-27 14:28:00,
2013-08-27 10:33:00,80.5,66.1,30.13,NW,315,1.3,2.5,61,0.00,,,0.00,WUHU216HW,2013-08-27 14:33:00,
2013-08-27 10:38:00,80.6,66.4,30.16,ENE,68,0.4,2.5,62,0.00,,,0.00,WUHU216HW,2013-08-27 14:38:00,
2013-08-27 10:43:00,81.0,66.3,30.17,SSE,158,1.1,2.5,61,0.00,,,0.00,WUHU216HW,2013-08-27 14:43:00,
2013-08-27 10:49:00,81.4,66.6,30.17,NNW,338,0.2,2.9,61,0.00,,,0.00,WUHU216HW,2013-08-27 14:49:00,
2013-08-27 10:54:00,81.7,67.0,30.16,North,0,0.4,3.1,61,0.00,,,0.00,WUHU216HW,2013-08-27 14:54:00,
2013-08-27 10:59:00,82.1,66.8,30.16,SW,225,1.8,3.4,60,0.00,,,0.00,WUHU216HW,2013-08-27 14:59:00,
2013-08-27 11:04:00,82.1,66.8,30.16,SSE,158,0.9,4.9,60,0.00,,,0.00,WUHU216HW,2013-08-27 15:04:00,
2013-08-27 11:09:00,82.1,67.1,30.15,South,180,0.7,4.9,60,0.00,,,0.00,WUHU216HW,2013-08-27 15:09:00,
2013-08-27 11:14:00,82.4,66.6,30.16,ENE,68,1.8,3.4,59,0.00,,,0.00,WUHU216HW,2013-08-27 15:14:00,
2013-08-27 11:19:00,82.8,67.0,30.15,WSW,248,0.4,3.4,59,0.00,,,0.00,WUHU216HW,2013-08-27 15:19:00,
2013-08-27 11:46:00,84.6,68.2,30.15,South,180,1.1,1.1,58,0.00,,,0.00,WUHU216HW,2013-08-27 15:46:00,
2013-08-27 11:51:00,85.7,68.7,30.15,West,270,1.8,3.4,57,0.00,,,0.00,WUHU216HW,2013-08-27 15:51:00,
2013-08-27 11:56:00,86.0,68.5,30.15,ESE,113,1.3,3.8,56,0.00,,,0.00,WUHU216HW,2013-08-27 15:56:00,
2013-08-27 12:01:00,86.4,66.7,30.15,NNE,23,2.2,3.8,52,0.00,,,0.00,WUHU216HW,2013-08-27 16:01:00,
2013-08-27 12:06:00,86.2,68.1,30.14,NNW,338,1.8,3.6,55,0.00,,,0.00,WUHU216HW,2013-08-27 16:06:00,
2013-08-27 12:11:00,86.8,68.7,30.14,SSW,203,1.1,3.6,55,0.00,,,0.00,WUHU216HW,2013-08-27 16:11:00,
2013-08-27 12:16:00,87.3,69.1,30.14,WNW,293,1.8,3.4,55,0.00,,,0.00,WUHU216HW,2013-08-27 16:16:00,
2013-08-27 12:21:00,87.5,68.8,30.14,WNW,293,1.8,2.5,54,0.00,,,0.00,WUHU216HW,2013-08-27 16:21:00,
2013-08-27 12:26:00,87.7,68.4,30.14,SSW,203,0.9,4.5,53,0.00,,,0.00,WUHU216HW,2013-08-27 16:26:00,
2013-08-27 12:31:00,87.7,66.8,30.13,NE,45,1.1,4.5,50,0.00,,,0.00,WUHU216HW,2013-08-27 16:31:00,
2013-08-27 12:36:00,87.8,67.5,30.14,ESE,113,0.9,3.8,51,0.00,,,0.00,WUHU216HW,2013-08-27 16:36:00,
2013-08-27 12:41:00,88.6,68.7,30.13,NNE,23,0.4,2.5,52,0.00,,,0.00,WUHU216HW,2013-08-27 16:41:00,
2013-08-27 12:46:00,88.9,69.0,30.14,WSW,248,0.4,3.1,52,0.00,,,0.00,WUHU216HW,2013-08-27 16:46:00,
2013-08-27 12:51:00,89.1,68.7,30.13,WNW,293,0.4,3.1,51,0.00,,,0.00,WUHU216HW,2013-08-27 16:51:00,
2013-08-27 12:56:00,89.1,69.2,30.13,NNE,23,1.8,2.7,52,0.00,,,0.00,WUHU216HW,2013-08-27 16:56:00,
2013-08-27 13:01:00,89.3,68.8,30.13,NW,315,1.8,2.5,51,0.00,,,0.00,WUHU216HW,2013-08-27 17:01:00,
2013-08-27 13:06:00,89.8,69.9,30.13,SSW,203,1.3,3.4,52,0.00,,,0.00,WUHU216HW,2013-08-27 17:06:00,
2013-08-27 13:11:00,90.0,69.0,30.13,NW,315,0.9,5.1,50,0.00,,,0.00,WUHU216HW,2013-08-27 17:11:00,
2013-08-27 13:16:00,89.6,68.0,30.13,South,180,1.1,5.1,49,0.00,,,0.00,WUHU216HW,2013-08-27 17:16:00,
2013-08-27 13:21:00,89.5,68.4,30.13,ENE,68,0.9,4.7,50,0.00,,,0.00,WUHU216HW,2013-08-27 17:21:00,
2013-08-27 13:26:00,89.6,68.6,30.13,NW,315,1.6,4.0,50,0.00,,,0.00,WUHU216HW,2013-08-27 17:26:00,
2013-08-27 13:31:00,89.6,68.6,30.13,NNW,338,0.4,4.3,50,0.00,,,0.00,WUHU216HW,2013-08-27 17:31:00,
2013-08-27 13:36:00,89.8,68.8,30.13,SE,135,1.3,4.3,50,0.00,,,0.00,WUHU216HW,2013-08-27 17:36:00,
2013-08-27 13:41:00,90.4,68.6,30.13,ESE,113,1.8,3.8,49,0.00,,,0.00,WUHU216HW,2013-08-27 17:41:00,
2013-08-27 13:46:00,90.5,68.8,30.13,SSW,203,1.3,2.2,49,0.00,,,0.00,WUHU216HW,2013-08-27 17:46:00,
2013-08-27 13:51:00,90.7,69.0,30.13,North,0,0.4,2.5,49,0.00,,,0.00,WUHU216HW,2013-08-27 17:51:00,
2013-08-27 13:56:00,90.9,69.8,30.12,NW,315,0.2,2.5,50,0.00,,,0.00,WUHU216HW,2013-08-27 17:56:00,
2013-08-27 14:01:00,90.7,69.0,30.12,NNW,338,0.4,2.2,49,0.00,,,0.00,WUHU216HW,2013-08-27 18:01:00,
2013-08-27 14:06:00,90.7,69.0,30.12,NNW,338,0.7,2.9,49,0.00,,,0.00,WUHU216HW,2013-08-27 18:06:00,
2013-08-27 14:11:00,90.4,67.3,30.12,North,0,0.4,4.0,47,0.00,,,0.00,WUHU216HW,2013-08-27 18:11:00,
2013-08-27 14:16:00,89.8,68.1,30.12,SSW,203,0.0,4.0,49,0.00,,,0.00,WUHU216HW,2013-08-27 18:16:00,
2013-08-27 14:21:00,89.5,67.8,30.11,NNW,338,0.2,1.6,49,0.00,,,0.00,WUHU216HW,2013-08-27 18:21:00,
2013-08-27 14:26:00,89.6,68.0,30.11,WNW,293,0.0,3.4,49,0.00,,,0.00,WUHU216HW,2013-08-27 18:26:00,
2013-08-27 14:31:00,90.0,68.2,30.11,South,180,1.1,3.4,49,0.00,,,0.00,WUHU216HW,2013-08-27 18:31:00,
2013-08-27 14:36:00,90.4,68.6,30.11,NNW,338,1.8,2.7,49,0.00,,,0.00,WUHU216HW,2013-08-27 18:36:00,
2013-08-27 14:41:00,89.6,68.0,30.11,NW,315,1.1,2.7,49,0.00,,,0.00,WUHU216HW,2013-08-27 18:41:00,
2013-08-27 14:46:00,89.8,68.8,30.10,SW,225,1.6,2.0,50,0.00,,,0.00,WUHU216HW,2013-08-27 18:46:00,
2013-08-27 14:51:00,90.4,67.3,30.10,NNE,23,1.3,3.8,47,0.00,,,0.00,WUHU216HW,2013-08-27 18:51:00,
2013-08-27 14:56:00,89.8,67.4,30.10,North,0,1.1,3.8,48,0.00,,,0.00,WUHU216HW,2013-08-27 18:56:00,
2013-08-27 15:01:00,89.1,66.2,30.10,WNW,293,1.1,2.5,47,0.00,,,0.00,WUHU216HW,2013-08-27 19:01:00,
2013-08-27 15:06:00,88.4,66.2,30.10,West,270,0.2,2.2,48,0.00,,,0.00,WUHU216HW,2013-08-27 19:06:00,
2013-08-27 15:11:00,88.4,67.4,30.09,NW,315,0.0,1.6,50,0.00,,,0.00,WUHU216HW,2013-08-27 19:11:00,
2013-08-27 15:16:00,88.6,67.6,30.09,NW,315,1.1,1.1,50,0.00,,,0.00,WUHU216HW,2013-08-27 19:16:00,
2013-08-27 15:21:00,88.6,67.0,30.09,South,180,0.4,2.2,49,0.00,,,0.00,WUHU216HW,2013-08-27 19:21:00,
2013-08-27 15:26:00,88.0,67.2,30.08,West,270,0.7,3.4,50,0.00,,,0.00,WUHU216HW,2013-08-27 19:26:00,
2013-08-27 15:31:00,87.8,67.0,30.08,WNW,293,0.9,3.4,50,0.00,,,0.00,WUHU216HW,2013-08-27 19:31:00,
2013-08-27 15:36:00,88.6,66.3,30.08,West,270,0.7,2.5,48,0.00,,,0.00,WUHU216HW,2013-08-27 19:36:00,
2013-08-27 15:41:00,89.1,67.4,30.08,NW,315,2.5,2.9,49,0.00,,,0.00,WUHU216HW,2013-08-27 19:41:00,
2013-08-27 15:46:00,89.1,68.1,30.08,NW,315,0.7,2.9,50,0.00,,,0.00,WUHU216HW,2013-08-27 19:46:00,
2013-08-27 15:51:00,89.1,68.1,30.07,NNE,23,1.1,2.5,50,0.00,,,0.00,WUHU216HW,2013-08-27 19:51:00,
2013-08-27 15:56:00,89.6,68.0,30.07,West,270,0.2,3.1,49,0.00,,,0.00,WUHU216HW,2013-08-27 19:56:00,
2013-08-27 16:01:00,90.2,67.2,30.07,NNE,23,0.9,3.4,47,0.00,,,0.00,WUHU216HW,2013-08-27 20:01:00,
2013-08-27 16:06:00,90.5,68.1,30.07,NW,315,1.8,3.4,48,0.00,,,0.00,WUHU216HW,2013-08-27 20:06:00,
2013-08-27 16:11:00,91.1,68.6,30.07,NW,315,1.1,3.4,48,0.00,,,0.00,WUHU216HW,2013-08-27 20:11:00,
2013-08-27 16:16:00,91.8,68.6,30.08,WNW,293,2.0,3.4,47,0.00,,,0.00,WUHU216HW,2013-08-27 20:16:00,
2013-08-27 16:21:00,92.2,68.2,30.07,NW,315,1.3,3.1,46,0.00,,,0.00,WUHU216HW,2013-08-27 20:21:00,
2013-08-27 16:26:00,92.0,68.8,30.07,South,180,0.4,3.4,47,0.00,,,0.00,WUHU216HW,2013-08-27 20:26:00,
2013-08-27 16:31:00,92.0,68.8,30.07,NW,315,1.8,3.4,47,0.00,,,0.00,WUHU216HW,2013-08-27 20:31:00,
2013-08-27 16:36:00,91.8,68.0,30.07,SE,135,1.3,2.5,46,0.00,,,0.00,WUHU216HW,2013-08-27 20:36:00,
2013-08-27 16:41:00,92.0,68.1,30.07,ENE,68,1.1,2.5,46,0.00,,,0.00,WUHU216HW,2013-08-27 20:41:00,
2013-08-27 16:46:00,91.4,68.2,30.07,SE,135,0.4,2.0,47,0.00,,,0.00,WUHU216HW,2013-08-27 20:46:00,
2013-08-27 16:51:00,91.3,67.4,30.07,SE,135,1.3,2.0,46,0.00,,,0.00,WUHU216HW,2013-08-27 20:51:00,
2013-08-27 16:56:00,90.4,66.0,30.07,NNE,23,0.4,2.9,45,0.00,,,0.00,WUHU216HW,2013-08-27 20:56:00,
2013-08-27 17:01:00,89.8,67.4,30.07,NNW,338,1.1,2.9,48,0.00,,,0.00,WUHU216HW,2013-08-27 21:01:00,
2013-08-27 17:06:00,90.2,67.8,30.07,SSW,203,0.4,2.5,48,0.00,,,0.00,WUHU216HW,2013-08-27 21:06:00,
2013-08-27 17:11:00,90.4,67.3,30.07,NNW,338,1.1,2.5,47,0.00,,,0.00,WUHU216HW,2013-08-27 21:11:00,
2013-08-27 17:16:00,90.4,66.6,30.07,North,0,2.0,2.0,46,0.00,,,0.00,WUHU216HW,2013-08-27 21:16:00,
2013-08-27 17:21:00,90.4,67.3,30.07,WNW,293,0.0,2.0,47,0.00,,,0.00,WUHU216HW,2013-08-27 21:21:00,
2013-08-27 17:26:00,90.5,67.4,30.07,West,270,1.1,2.0,47,0.00,,,0.00,WUHU216HW,2013-08-27 21:26:00,
2013-08-27 17:31:00,90.5,67.4,30.07,SSW,203,0.9,1.8,47,0.00,,,0.00,WUHU216HW,2013-08-27 21:31:00,
2013-08-27 17:36:00,90.2,67.2,30.07,West,270,0.7,2.9,47,0.00,,,0.00,WUHU216HW,2013-08-27 21:36:00,
2013-08-27 17:41:00,89.8,67.4,30.07,South,180,1.8,2.9,48,0.00,,,0.00,WUHU216HW,2013-08-27 21:41:00,
2013-08-27 17:46:00,89.3,67.0,30.07,West,270,1.1,2.7,48,0.00,,,0.00,WUHU216HW,2013-08-27 21:46:00,
2013-08-27 17:51:00,88.9,67.3,30.07,NNE,23,0.7,2.5,49,0.00,,,0.00,WUHU216HW,2013-08-27 21:51:00,
2013-08-27 17:56:00,88.9,68.0,30.07,SSW,203,0.7,2.0,50,0.00,,,0.00,WUHU216HW,2013-08-27 21:56:00,
2013-08-27 18:01:00,89.1,68.1,30.07,SSE,158,0.0,2.0,50,0.00,,,0.00,WUHU216HW,2013-08-27 22:01:00,
2013-08-27 18:06:00,89.3,68.2,30.07,SW,225,1.1,1.8,50,0.00,,,0.00,WUHU216HW,2013-08-27 22:06:00,
2013-08-27 18:11:00,89.6,68.0,30.07,South,180,0.4,2.0,49,0.00,,,0.00,WUHU216HW,2013-08-27 22:11:00,
2013-08-27 18:16:00,89.6,68.6,30.07,SSW,203,0.2,2.0,50,0.00,,,0.00,WUHU216HW,2013-08-27 22:16:00,
2013-08-27 18:21:00,89.3,67.6,30.07,SSW,203,0.2,1.6,49,0.00,,,0.00,WUHU216HW,2013-08-27 22:21:00,
2013-08-27 18:26:00,88.7,67.8,30.07,South,180,0.0,1.6,50,0.00,,,0.00,WUHU216HW,2013-08-27 22:26:00,
2013-08-27 18:31:00,88.4,67.4,30.07,SSE,158,0.9,1.8,50,0.00,,,0.00,WUHU216HW,2013-08-27 22:31:00,
2013-08-27 18:36:00,88.2,67.3,30.06,SW,225,0.2,1.8,50,0.00,,,0.00,WUHU216HW,2013-08-27 22:36:00,
2013-08-27 18:41:00,87.8,67.5,30.06,SSW,203,0.9,1.3,51,0.00,,,0.00,WUHU216HW,2013-08-27 22:41:00,
2013-08-27 18:46:00,87.1,66.9,30.07,WNW,293,0.0,1.3,51,0.00,,,0.00,WUHU216HW,2013-08-27 22:46:00,
2013-08-27 18:51:00,86.6,66.9,30.07,NNW,338,0.2,0.7,52,0.00,,,0.00,WUHU216HW,2013-08-27 22:51:00,
2013-08-27 18:56:00,86.0,66.9,30.07,WNW,293,0.2,0.9,53,0.00,,,0.00,WUHU216HW,2013-08-27 22:56:00,
2013-08-27 19:01:00,85.9,66.8,30.07,South,180,1.1,1.3,53,0.00,,,0.00,WUHU216HW,2013-08-27 23:01:00,
2013-08-27 19:06:00,85.5,66.4,30.07,ENE,68,0.0,1.6,53,0.00,,,0.00,WUHU216HW,2013-08-27 23:06:00,
2013-08-27 19:11:00,85.3,66.8,30.07,South,180,0.0,1.6,54,0.00,,,0.00,WUHU216HW,2013-08-27 23:11:00,
2013-08-27 19:17:00,84.8,66.8,30.07,SW,225,0.0,0.4,55,0.00,,,0.00,WUHU216HW,2013-08-27 23:17:00,
2013-08-27 19:21:00,84.2,66.9,30.07,SW,225,0.2,0.2,56,0.00,,,0.00,WUHU216HW,2013-08-27 23:21:00,
2013-08-27 19:27:00,83.9,67.1,30.07,NW,315,0.0,0.2,57,0.00,,,0.00,WUHU216HW,2013-08-27 23:27:00,
2013-08-27 19:32:00,83.5,67.1,30.07,SSE,158,0.0,0.4,58,0.00,,,0.00,WUHU216HW,2013-08-27 23:32:00,
2013-08-27 19:37:00,83.2,66.3,30.07,SSW,203,0.0,0.4,57,0.00,,,0.00,WUHU216HW,2013-08-27 23:37:00,
2013-08-27 19:42:00,82.6,66.2,30.07,SW,225,0.0,0.4,58,0.00,,,0.00,WUHU216HW,2013-08-27 23:42:00,
2013-08-27 19:47:00,82.1,66.3,30.07,SW,225,0.2,0.4,59,0.00,,,0.00,WUHU216HW,2013-08-27 23:47:00,
2013-08-27 19:52:00,81.9,66.2,30.07,SW,225,0.0,0.4,59,0.00,,,0.00,WUHU216HW,2013-08-27 23:52:00,
2013-08-27 19:57:00,81.7,66.5,30.08,West,270,0.0,0.9,60,0.00,,,0.00,WUHU216HW,2013-08-27 23:57:00,
2013-08-27 20:02:00,81.4,66.2,30.08,SSW,203,0.4,0.9,60,0.00,,,0.00,WUHU216HW,2013-08-28 00:02:00,
2013-08-27 20:07:00,81.0,66.3,30.08,SSW,203,0.0,0.4,61,0.00,,,0.00,WUHU216HW,2013-08-28 00:07:00,
2013-08-27 20:12:00,80.8,66.6,30.08,SSW,203,0.0,0.4,62,0.00,,,0.00,WUHU216HW,2013-08-28 00:12:00,
2013-08-27 20:17:00,80.5,66.2,30.08,SSW,203,0.0,0.0,62,0.00,,,0.00,WUHU216HW,2013-08-28 00:17:00,
2013-08-27 20:22:00,80.3,66.5,30.07,SSW,203,0.0,0.0,63,0.00,,,0.00,WUHU216HW,2013-08-28 00:22:00,
2013-08-27 20:27:00,80.1,66.3,30.07,SSW,203,0.0,0.0,63,0.00,,,0.00,WUHU216HW,2013-08-28 00:27:00,
2013-08-27 20:32:00,79.7,66.5,30.07,SSE,158,0.0,0.4,64,0.00,,,0.00,WUHU216HW,2013-08-28 00:32:00,
2013-08-27 20:37:00,79.2,66.4,30.07,SSE,158,0.0,0.4,65,0.00,,,0.00,WUHU216HW,2013-08-28 00:37:00,
2013-08-27 20:42:00,78.8,66.1,30.07,SSE,158,0.0,0.2,65,0.00,,,0.00,WUHU216HW,2013-08-28 00:42:00,
2013-08-27 20:47:00,78.7,66.3,30.07,SSE,158,0.0,0.0,66,0.00,,,0.00,WUHU216HW,2013-08-28 00:47:00,
2013-08-27 20:52:00,78.5,66.2,30.07,SSE,158,0.0,0.0,66,0.00,,,0.00,WUHU216HW,2013-08-28 00:52:00,
2013-08-27 20:57:00,78.1,65.8,30.08,SSE,158,0.0,0.4,66,0.00,,,0.00,WUHU216HW,2013-08-28 00:57:00,
2013-08-27 21:02:00,77.9,65.6,30.08,SSE,158,0.0,0.4,66,0.00,,,0.00,WUHU216HW,2013-08-28 01:02:00,
2013-08-27 21:07:00,77.8,65.5,30.08,SSE,158,0.0,0.0,66,0.00,,,0.00,WUHU216HW,2013-08-28 01:07:00,
2013-08-27 21:12:00,77.6,65.8,30.08,SSE,158,0.0,0.0,67,0.00,,,0.00,WUHU216HW,2013-08-28 01:12:00,
2013-08-27 21:17:00,77.4,65.6,30.08,SSE,158,0.0,0.0,67,0.00,,,0.00,WUHU216HW,2013-08-28 01:17:00,
2013-08-27 21:22:00,77.2,65.4,30.08,SSE,158,0.0,0.0,67,0.00,,,0.00,WUHU216HW,2013-08-28 01:22:00,
2013-08-27 21:27:00,77.0,65.7,30.08,SSE,158,0.0,0.0,68,0.00,,,0.00,WUHU216HW,2013-08-28 01:27:00,
2013-08-27 21:32:00,76.7,65.3,30.08,SSE,158,0.0,0.0,68,0.00,,,0.00,WUHU216HW,2013-08-28 01:32:00,
2013-08-27 21:37:00,76.5,65.6,30.08,SSE,158,0.0,0.0,69,0.00,,,0.00,WUHU216HW,2013-08-28 01:37:00,
2013-08-27 21:42:00,76.3,65.4,30.08,SSE,158,0.0,0.0,69,0.00,,,0.00,WUHU216HW,2013-08-28 01:42:00,
2013-08-27 21:47:00,76.1,65.3,30.08,SSE,158,0.0,0.0,69,0.00,,,0.00,WUHU216HW,2013-08-28 01:47:00,
2013-08-27 21:52:00,76.0,65.5,30.08,SSE,158,0.0,0.0,70,0.00,,,0.00,WUHU216HW,2013-08-28 01:52:00,
2013-08-27 21:57:00,75.6,65.2,30.08,SSE,158,0.0,0.0,70,0.00,,,0.00,WUHU216HW,2013-08-28 01:57:00,
2013-08-27 22:02:00,75.4,65.3,30.09,SSE,158,0.0,0.0,71,0.00,,,0.00,WUHU216HW,2013-08-28 02:02:00,
2013-08-27 22:07:00,75.2,65.2,30.09,SSE,158,0.0,0.0,71,0.00,,,0.00,WUHU216HW,2013-08-28 02:07:00,
2013-08-27 22:12:00,74.9,64.9,30.09,West,270,0.2,0.4,71,0.00,,,0.00,WUHU216HW,2013-08-28 02:12:00,
2013-08-27 22:17:00,74.7,65.1,30.09,West,270,0.0,0.4,72,0.00,,,0.00,WUHU216HW,2013-08-28 02:17:00,
2013-08-27 22:22:00,74.5,64.9,30.10,West,270,0.0,0.2,72,0.00,,,0.00,WUHU216HW,2013-08-28 02:22:00,
2013-08-27 22:27:00,74.3,65.2,30.09,West,270,0.0,0.0,73,0.00,,,0.00,WUHU216HW,2013-08-28 02:27:00,
2013-08-27 22:32:00,74.3,65.2,30.09,West,270,0.0,0.0,73,0.00,,,0.00,WUHU216HW,2013-08-28 02:32:00,
2013-08-27 22:37:00,74.2,65.0,30.09,West,270,0.0,0.0,73,0.00,,,0.00,WUHU216HW,2013-08-28 02:37:00,
2013-08-27 22:42:00,74.0,65.2,30.09,West,270,0.0,0.0,74,0.00,,,0.00,WUHU216HW,2013-08-28 02:42:00,
2013-08-27 22:47:00,73.8,65.1,30.09,SSW,203,0.0,0.2,74,0.00,,,0.00,WUHU216HW,2013-08-28 02:47:00,
2013-08-27 22:52:00,73.8,65.1,30.10,WNW,293,0.4,0.4,74,0.00,,,0.00,WUHU216HW,2013-08-28 02:52:00,
2013-08-27 22:57:00,73.4,65.1,30.10,WNW,293,0.0,0.4,75,0.00,,,0.00,WUHU216HW,2013-08-28 02:57:00,
2013-08-27 23:02:00,73.3,64.9,30.10,WNW,293,0.0,0.4,75,0.00,,,0.00,WUHU216HW,2013-08-28 03:02:00,
2013-08-27 23:07:00,72.9,64.9,30.10,WNW,293,0.0,0.0,76,0.00,,,0.00,WUHU216HW,2013-08-28 03:07:00,
2013-08-27 23:12:00,72.9,64.9,30.10,WNW,293,0.0,0.0,76,0.00,,,0.00,WUHU216HW,2013-08-28 03:12:00,
2013-08-27 23:17:00,72.9,64.9,30.10,WNW,293,0.0,0.0,76,0.00,,,0.00,WUHU216HW,2013-08-28 03:17:00,
2013-08-27 23:22:00,72.7,64.7,30.10,WNW,293,0.0,0.0,76,0.00,,,0.00,WUHU216HW,2013-08-28 03:22:00,
2013-08-27 23:27:00,72.7,64.7,30.10,West,270,0.0,0.0,76,0.00,,,0.00,WUHU216HW,2013-08-28 03:27:00,
2013-08-27 23:32:00,72.7,64.7,30.10,West,270,0.0,0.0,76,0.00,,,0.00,WUHU216HW,2013-08-28 03:32:00,
2013-08-27 23:37:00,72.5,64.9,30.10,South,180,0.0,0.2,77,0.00,,,0.00,WUHU216HW,2013-08-28 03:37:00,
2013-08-27 23:42:00,72.4,64.7,30.10,South,180,0.0,0.2,77,0.00,,,0.00,WUHU216HW,2013-08-28 03:42:00,
2013-08-27 23:47:00,72.4,64.7,30.10,South,180,0.0,0.0,77,0.00,,,0.00,WUHU216HW,2013-08-28 03:47:00,
2013-08-27 23:52:00,72.0,64.4,30.10,South,180,0.0,0.0,77,0.00,,,0.00,WUHU216HW,2013-08-28 03:52:00,
2013-08-27 23:57:00,71.8,64.2,30.10,WNW,293,0.0,0.4,77,0.00,,,0.00,WUHU216HW,2013-08-28 03:57:00,